sensor_id;sensor_type;location;lat;lon;timestamp;P1;durP1;ratioP1;P2;durP2;ratioP2
56567;SDS011;42456;49.956;20.004;2023-02-15T00:01:42;43.50;;;23.10;;
56567;SDS011;42456;49.956;20.004;2023-02-15T00:04:12;43.20;;;22.60;;
56567;SDS011;42456;49.956;20.004;2023-02-15T00:06:40;48.10;;;23.20;;
56567;SDS011;42456;49.956;20.004;2023-02-15T00:09:08;45.20;;;23.20;;
56567;SDS011;42456;49.956;20.004;2023-02-15T00:11:35;54.40;;;25.90;;
56567;SDS011;42456;49.956;20.004;2023-02-15T00:14:10;53.50;;;25.50;;
56567;SDS011;42456;49.956;20.004;2023-02-15T00:16:40;42.10;;;23.30;;
56567;SDS011;42456;49.956;20.004;2023-02-15T00:19:09;44.60;;;23.00;;
56567;SDS011;42456;49.956;20.004;2023-02-15T00:21:37;42.20;;;21.70;;
56567;SDS011;42456;49.956;20.004;2023-02-15T00:24:05;46.70;;;22.80;;
56567;SDS011;42456;49.956;20.004;2023-02-15T00:26:34;40.80;;;21.80;;
56567;SDS011;42456;49.956;20.004;2023-02-15T00:29:02;40.80;;;22.10;;
56567;SDS011;42456;49.956;20.004;2023-02-15T00:31:30;48.90;;;24.00;;
56567;SDS011;42456;49.956;20.004;2023-02-15T00:34:01;50.20;;;25.50;;
56567;SDS011;42456;49.956;20.004;2023-02-15T00:36:29;50.80;;;25.00;;
56567;SDS011;42456;49.956;20.004;2023-02-15T00:38:56;43.00;;;23.10;;
56567;SDS011;42456;49.956;20.004;2023-02-15T00:41:23;46.60;;;24.50;;
56567;SDS011;42456;49.956;20.004;2023-02-15T00:43:50;48.20;;;24.10;;
56567;SDS011;42456;49.956;20.004;2023-02-15T00:46:17;50.60;;;25.10;;
56567;SDS011;42456;49.956;20.004;2023-02-15T00:48:44;47.30;;;24.10;;
56567;SDS011;42456;49.956;20.004;2023-02-15T00:51:11;48.30;;;25.60;;
56567;SDS011;42456;49.956;20.004;2023-02-15T00:53:38;46.60;;;23.40;;
56567;SDS011;42456;49.956;20.004;2023-02-15T00:56:04;43.30;;;23.00;;
56567;SDS011;42456;49.956;20.004;2023-02-15T00:58:32;39.70;;;20.70;;
56567;SDS011;42456;49.956;20.004;2023-02-15T01:01:02;38.60;;;21.90;;
56567;SDS011;42456;49.956;20.004;2023-02-15T01:03:32;40.30;;;20.80;;
56567;SDS011;42456;49.956;20.004;2023-02-15T01:05:59;42.40;;;20.50;;
56567;SDS011;42456;49.956;20.004;2023-02-15T01:08:27;41.70;;;20.10;;
56567;SDS011;42456;49.956;20.004;2023-02-15T01:10:54;39.30;;;18.70;;
56567;SDS011;42456;49.956;20.004;2023-02-15T01:13:21;37.40;;;19.30;;
56567;SDS011;42456;49.956;20.004;2023-02-15T01:15:52;36.50;;;18.70;;
56567;SDS011;42456;49.956;20.004;2023-02-15T01:18:21;35.30;;;16.90;;
56567;SDS011;42456;49.956;20.004;2023-02-15T01:20:48;36.00;;;17.70;;
56567;SDS011;42456;49.956;20.004;2023-02-15T01:23:15;32.10;;;16.80;;
56567;SDS011;42456;49.956;20.004;2023-02-15T01:25:42;32.30;;;16.80;;
56567;SDS011;42456;49.956;20.004;2023-02-15T01:28:09;31.30;;;15.80;;
56567;SDS011;42456;49.956;20.004;2023-02-15T01:30:36;33.40;;;16.20;;
56567;SDS011;42456;49.956;20.004;2023-02-15T01:33:03;33.20;;;17.10;;
56567;SDS011;42456;49.956;20.004;2023-02-15T01:35:30;34.60;;;17.00;;
56567;SDS011;42456;49.956;20.004;2023-02-15T01:37:57;35.30;;;16.70;;
56567;SDS011;42456;49.956;20.004;2023-02-15T01:40:24;38.50;;;19.00;;
56567;SDS011;42456;49.956;20.004;2023-02-15T01:42:51;35.20;;;18.50;;
56567;SDS011;42456;49.956;20.004;2023-02-15T01:45:26;33.90;;;17.90;;
56567;SDS011;42456;49.956;20.004;2023-02-15T01:48:06;36.10;;;18.20;;
56567;SDS011;42456;49.956;20.004;2023-02-15T01:50:50;36.80;;;17.70;;
56567;SDS011;42456;49.956;20.004;2023-02-15T01:53:25;36.20;;;17.30;;
56567;SDS011;42456;49.956;20.004;2023-02-15T01:55:57;34.40;;;17.40;;
56567;SDS011;42456;49.956;20.004;2023-02-15T01:58:29;34.30;;;16.30;;
56567;SDS011;42456;49.956;20.004;2023-02-15T02:00:58;33.70;;;17.40;;
56567;SDS011;42456;49.956;20.004;2023-02-15T02:06:14;29.50;;;15.10;;
56567;SDS011;42456;49.956;20.004;2023-02-15T02:08:41;27.30;;;14.60;;
56567;SDS011;42456;49.956;20.004;2023-02-15T02:11:10;28.80;;;14.90;;
56567;SDS011;42456;49.956;20.004;2023-02-15T02:13:38;29.60;;;14.50;;
56567;SDS011;42456;49.956;20.004;2023-02-15T02:27:43;32.60;;;16.90;;
56567;SDS011;42456;49.956;20.004;2023-02-15T02:30:26;33.30;;;15.00;;
56567;SDS011;42456;49.956;20.004;2023-02-15T02:38:41;26.40;;;12.90;;
56567;SDS011;42456;49.956;20.004;2023-02-15T02:41:23;28.10;;;13.20;;
56567;SDS011;42456;49.956;20.004;2023-02-15T02:51:58;24.70;;;12.80;;
56567;SDS011;42456;49.956;20.004;2023-02-15T02:54:26;23.00;;;12.40;;
56567;SDS011;42456;49.956;20.004;2023-02-15T02:56:55;23.80;;;11.90;;
56567;SDS011;42456;49.956;20.004;2023-02-15T02:59:59;23.80;;;11.50;;
56567;SDS011;42456;49.956;20.004;2023-02-15T03:02:22;23.60;;;11.80;;
56567;SDS011;42456;49.956;20.004;2023-02-15T03:04:57;24.50;;;13.30;;
56567;SDS011;42456;49.956;20.004;2023-02-15T03:07:30;26.90;;;13.50;;
56567;SDS011;42456;49.956;20.004;2023-02-15T03:09:58;24.80;;;13.40;;
56567;SDS011;42456;49.956;20.004;2023-02-15T03:12:30;29.60;;;14.80;;
56567;SDS011;42456;49.956;20.004;2023-02-15T03:17:31;29.00;;;14.00;;
56567;SDS011;42456;49.956;20.004;2023-02-15T03:20:01;28.00;;;13.80;;
56567;SDS011;42456;49.956;20.004;2023-02-15T03:22:37;29.70;;;13.80;;
56567;SDS011;42456;49.956;20.004;2023-02-15T03:27:54;26.40;;;13.20;;
56567;SDS011;42456;49.956;20.004;2023-02-15T03:30:25;24.70;;;12.70;;
56567;SDS011;42456;49.956;20.004;2023-02-15T03:32:56;24.60;;;12.80;;
56567;SDS011;42456;49.956;20.004;2023-02-15T03:35:28;24.50;;;12.20;;
56567;SDS011;42456;49.956;20.004;2023-02-15T03:38:03;24.90;;;12.40;;
56567;SDS011;42456;49.956;20.004;2023-02-15T03:40:34;26.70;;;13.00;;
56567;SDS011;42456;49.956;20.004;2023-02-15T03:46:15;29.50;;;15.20;;
56567;SDS011;42456;49.956;20.004;2023-02-15T03:48:50;22.80;;;12.20;;
56567;SDS011;42456;49.956;20.004;2023-02-15T03:51:21;28.50;;;13.80;;
56567;SDS011;42456;49.956;20.004;2023-02-15T03:54:14;29.40;;;15.10;;
56567;SDS011;42456;49.956;20.004;2023-02-15T03:57:01;29.60;;;14.50;;
56567;SDS011;42456;49.956;20.004;2023-02-15T03:59:42;28.20;;;14.20;;
56567;SDS011;42456;49.956;20.004;2023-02-15T04:02:23;30.50;;;15.00;;
56567;SDS011;42456;49.956;20.004;2023-02-15T04:05:00;25.00;;;13.10;;
56567;SDS011;42456;49.956;20.004;2023-02-15T04:07:27;28.50;;;13.10;;
56567;SDS011;42456;49.956;20.004;2023-02-15T04:09:54;28.50;;;14.40;;
56567;SDS011;42456;49.956;20.004;2023-02-15T04:12:34;27.80;;;13.40;;
56567;SDS011;42456;49.956;20.004;2023-02-15T04:15:01;25.60;;;13.20;;
56567;SDS011;42456;49.956;20.004;2023-02-15T04:17:54;31.50;;;16.20;;
56567;SDS011;42456;49.956;20.004;2023-02-15T04:20:21;26.90;;;13.60;;
56567;SDS011;42456;49.956;20.004;2023-02-15T04:23:00;31.20;;;15.90;;
56567;SDS011;42456;49.956;20.004;2023-02-15T04:25:41;27.90;;;14.30;;
56567;SDS011;42456;49.956;20.004;2023-02-15T04:28:08;29.30;;;14.70;;
56567;SDS011;42456;49.956;20.004;2023-02-15T04:30:35;27.10;;;14.60;;
56567;SDS011;42456;49.956;20.004;2023-02-15T04:33:02;31.80;;;15.50;;
56567;SDS011;42456;49.956;20.004;2023-02-15T04:35:29;29.70;;;15.90;;
56567;SDS011;42456;49.956;20.004;2023-02-15T04:37:58;27.70;;;14.70;;
56567;SDS011;42456;49.956;20.004;2023-02-15T04:40:24;31.90;;;16.60;;
56567;SDS011;42456;49.956;20.004;2023-02-15T04:42:51;28.90;;;14.80;;
56567;SDS011;42456;49.956;20.004;2023-02-15T04:45:18;30.90;;;14.10;;
56567;SDS011;42456;49.956;20.004;2023-02-15T04:47:45;34.60;;;16.20;;
56567;SDS011;42456;49.956;20.004;2023-02-15T04:50:11;29.50;;;15.30;;
56567;SDS011;42456;49.956;20.004;2023-02-15T04:52:38;29.60;;;14.70;;
56567;SDS011;42456;49.956;20.004;2023-02-15T04:55:05;28.10;;;14.40;;
56567;SDS011;42456;49.956;20.004;2023-02-15T04:57:32;27.50;;;14.40;;
56567;SDS011;42456;49.956;20.004;2023-02-15T04:59:59;29.70;;;15.00;;
56567;SDS011;42456;49.956;20.004;2023-02-15T05:02:26;28.30;;;14.90;;
56567;SDS011;42456;49.956;20.004;2023-02-15T05:04:52;30.60;;;16.00;;
56567;SDS011;42456;49.956;20.004;2023-02-15T05:07:19;28.20;;;14.40;;
56567;SDS011;42456;49.956;20.004;2023-02-15T05:09:46;30.10;;;14.60;;
56567;SDS011;42456;49.956;20.004;2023-02-15T05:12:14;28.50;;;14.50;;
56567;SDS011;42456;49.956;20.004;2023-02-15T05:14:41;26.10;;;13.50;;
56567;SDS011;42456;49.956;20.004;2023-02-15T05:17:07;27.70;;;14.30;;
56567;SDS011;42456;49.956;20.004;2023-02-15T05:19:34;30.90;;;16.00;;
56567;SDS011;42456;49.956;20.004;2023-02-15T05:22:01;30.60;;;16.20;;
56567;SDS011;42456;49.956;20.004;2023-02-15T05:24:28;31.20;;;16.30;;
56567;SDS011;42456;49.956;20.004;2023-02-15T05:27:12;29.30;;;14.90;;
56567;SDS011;42456;49.956;20.004;2023-02-15T05:29:53;28.50;;;15.10;;
56567;SDS011;42456;49.956;20.004;2023-02-15T05:32:20;28.00;;;14.90;;
56567;SDS011;42456;49.956;20.004;2023-02-15T05:34:47;27.00;;;14.30;;
56567;SDS011;42456;49.956;20.004;2023-02-15T05:37:13;34.10;;;15.90;;
56567;SDS011;42456;49.956;20.004;2023-02-15T05:39:40;27.00;;;14.30;;
56567;SDS011;42456;49.956;20.004;2023-02-15T05:42:07;28.60;;;15.40;;
56567;SDS011;42456;49.956;20.004;2023-02-15T05:44:34;25.10;;;12.80;;
56567;SDS011;42456;49.956;20.004;2023-02-15T05:47:01;31.90;;;16.80;;
56567;SDS011;42456;49.956;20.004;2023-02-15T05:49:29;33.90;;;18.40;;
56567;SDS011;42456;49.956;20.004;2023-02-15T05:51:56;32.00;;;16.10;;
56567;SDS011;42456;49.956;20.004;2023-02-15T05:54:23;28.70;;;15.50;;
56567;SDS011;42456;49.956;20.004;2023-02-15T05:56:50;33.30;;;16.20;;
56567;SDS011;42456;49.956;20.004;2023-02-15T05:59:17;30.70;;;16.50;;
56567;SDS011;42456;49.956;20.004;2023-02-15T06:01:43;31.20;;;15.20;;
56567;SDS011;42456;49.956;20.004;2023-02-15T06:04:10;28.30;;;14.40;;
56567;SDS011;42456;49.956;20.004;2023-02-15T06:06:37;29.70;;;15.20;;
56567;SDS011;42456;49.956;20.004;2023-02-15T06:09:04;26.80;;;13.70;;
56567;SDS011;42456;49.956;20.004;2023-02-15T06:11:30;29.90;;;13.60;;
56567;SDS011;42456;49.956;20.004;2023-02-15T06:13:57;24.60;;;12.80;;
56567;SDS011;42456;49.956;20.004;2023-02-15T06:16:24;28.00;;;13.80;;
56567;SDS011;42456;49.956;20.004;2023-02-15T06:18:51;27.10;;;13.50;;
56567;SDS011;42456;49.956;20.004;2023-02-15T06:21:19;24.60;;;13.20;;
56567;SDS011;42456;49.956;20.004;2023-02-15T06:23:45;24.60;;;12.60;;
56567;SDS011;42456;49.956;20.004;2023-02-15T06:26:12;28.30;;;14.50;;
56567;SDS011;42456;49.956;20.004;2023-02-15T06:28:39;24.50;;;12.50;;
56567;SDS011;42456;49.956;20.004;2023-02-15T06:31:07;25.20;;;12.90;;
56567;SDS011;42456;49.956;20.004;2023-02-15T06:33:34;28.00;;;13.90;;
56567;SDS011;42456;49.956;20.004;2023-02-15T06:36:01;30.80;;;16.40;;
56567;SDS011;42456;49.956;20.004;2023-02-15T06:38:30;31.10;;;16.00;;
56567;SDS011;42456;49.956;20.004;2023-02-15T06:40:57;32.20;;;15.40;;
56567;SDS011;42456;49.956;20.004;2023-02-15T06:43:24;27.20;;;14.20;;
56567;SDS011;42456;49.956;20.004;2023-02-15T06:45:51;27.40;;;14.10;;
56567;SDS011;42456;49.956;20.004;2023-02-15T06:48:18;27.30;;;13.40;;
56567;SDS011;42456;49.956;20.004;2023-02-15T06:50:44;23.60;;;10.90;;
56567;SDS011;42456;49.956;20.004;2023-02-15T06:53:12;19.50;;;9.70;;
56567;SDS011;42456;49.956;20.004;2023-02-15T06:55:38;20.40;;;10.00;;
56567;SDS011;42456;49.956;20.004;2023-02-15T06:58:05;21.20;;;10.60;;
56567;SDS011;42456;49.956;20.004;2023-02-15T07:00:32;22.60;;;11.10;;
56567;SDS011;42456;49.956;20.004;2023-02-15T07:02:59;22.60;;;10.80;;
56567;SDS011;42456;49.956;20.004;2023-02-15T07:05:26;21.00;;;10.60;;
56567;SDS011;42456;49.956;20.004;2023-02-15T07:07:58;19.80;;;10.30;;
56567;SDS011;42456;49.956;20.004;2023-02-15T07:10:25;20.50;;;9.80;;
56567;SDS011;42456;49.956;20.004;2023-02-15T07:12:53;19.00;;;10.20;;
56567;SDS011;42456;49.956;20.004;2023-02-15T07:15:20;21.40;;;11.20;;
56567;SDS011;42456;49.956;20.004;2023-02-15T07:17:47;19.90;;;9.90;;
56567;SDS011;42456;49.956;20.004;2023-02-15T07:20:16;20.70;;;10.10;;
56567;SDS011;42456;49.956;20.004;2023-02-15T07:22:46;20.60;;;10.20;;
56567;SDS011;42456;49.956;20.004;2023-02-15T07:25:13;21.20;;;11.10;;
56567;SDS011;42456;49.956;20.004;2023-02-15T07:27:40;20.50;;;10.40;;
56567;SDS011;42456;49.956;20.004;2023-02-15T07:30:09;22.50;;;10.90;;
56567;SDS011;42456;49.956;20.004;2023-02-15T07:35:51;21.50;;;10.90;;
56567;SDS011;42456;49.956;20.004;2023-02-15T07:38:31;19.70;;;9.80;;
56567;SDS011;42456;49.956;20.004;2023-02-15T07:41:00;21.90;;;11.10;;
56567;SDS011;42456;49.956;20.004;2023-02-15T07:43:29;19.70;;;9.90;;
56567;SDS011;42456;49.956;20.004;2023-02-15T07:45:59;21.50;;;10.80;;
56567;SDS011;42456;49.956;20.004;2023-02-15T07:48:27;20.10;;;10.60;;
56567;SDS011;42456;49.956;20.004;2023-02-15T07:50:54;19.40;;;9.10;;
56567;SDS011;42456;49.956;20.004;2023-02-15T07:53:25;19.40;;;9.50;;
56567;SDS011;42456;49.956;20.004;2023-02-15T07:55:52;17.30;;;9.30;;
56567;SDS011;42456;49.956;20.004;2023-02-15T07:58:18;18.00;;;9.80;;
56567;SDS011;42456;49.956;20.004;2023-02-15T08:00:45;19.70;;;10.00;;
56567;SDS011;42456;49.956;20.004;2023-02-15T08:03:27;19.20;;;9.90;;
56567;SDS011;42456;49.956;20.004;2023-02-15T08:05:57;18.30;;;8.60;;
56567;SDS011;42456;49.956;20.004;2023-02-15T08:08:26;19.00;;;9.60;;
56567;SDS011;42456;49.956;20.004;2023-02-15T08:11:00;19.90;;;9.70;;
56567;SDS011;42456;49.956;20.004;2023-02-15T08:13:41;19.20;;;9.70;;
56567;SDS011;42456;49.956;20.004;2023-02-15T08:19:30;20.40;;;10.50;;
56567;SDS011;42456;49.956;20.004;2023-02-15T08:22:05;21.10;;;10.20;;
56567;SDS011;42456;49.956;20.004;2023-02-15T08:24:34;20.30;;;10.00;;
56567;SDS011;42456;49.956;20.004;2023-02-15T08:27:06;19.60;;;9.90;;
56567;SDS011;42456;49.956;20.004;2023-02-15T08:29:35;18.50;;;9.40;;
56567;SDS011;42456;49.956;20.004;2023-02-15T08:32:07;21.80;;;10.60;;
56567;SDS011;42456;49.956;20.004;2023-02-15T08:34:40;17.30;;;9.40;;
56567;SDS011;42456;49.956;20.004;2023-02-15T08:37:08;21.80;;;11.00;;
56567;SDS011;42456;49.956;20.004;2023-02-15T08:39:35;21.70;;;11.00;;
56567;SDS011;42456;49.956;20.004;2023-02-15T08:42:03;20.90;;;11.40;;
56567;SDS011;42456;49.956;20.004;2023-02-15T08:44:30;22.20;;;11.60;;
56567;SDS011;42456;49.956;20.004;2023-02-15T08:46:56;24.70;;;11.90;;
56567;SDS011;42456;49.956;20.004;2023-02-15T08:49:29;22.30;;;12.00;;
56567;SDS011;42456;49.956;20.004;2023-02-15T08:51:55;20.60;;;11.20;;
56567;SDS011;42456;49.956;20.004;2023-02-15T08:54:22;20.20;;;10.60;;
56567;SDS011;42456;49.956;20.004;2023-02-15T08:56:50;20.90;;;10.80;;
56567;SDS011;42456;49.956;20.004;2023-02-15T08:59:18;22.80;;;11.20;;
56567;SDS011;42456;49.956;20.004;2023-02-15T09:01:47;21.20;;;10.40;;
56567;SDS011;42456;49.956;20.004;2023-02-15T09:04:16;24.30;;;11.80;;
56567;SDS011;42456;49.956;20.004;2023-02-15T09:06:44;21.10;;;10.90;;
56567;SDS011;42456;49.956;20.004;2023-02-15T09:09:14;21.50;;;10.90;;
56567;SDS011;42456;49.956;20.004;2023-02-15T09:11:43;20.40;;;10.90;;
56567;SDS011;42456;49.956;20.004;2023-02-15T09:14:13;20.20;;;10.10;;
56567;SDS011;42456;49.956;20.004;2023-02-15T09:16:44;20.60;;;10.10;;
56567;SDS011;42456;49.956;20.004;2023-02-15T09:19:15;19.60;;;9.60;;
56567;SDS011;42456;49.956;20.004;2023-02-15T09:21:44;21.50;;;10.70;;
56567;SDS011;42456;49.956;20.004;2023-02-15T09:24:12;22.20;;;10.40;;
56567;SDS011;42456;49.956;20.004;2023-02-15T09:26:41;21.50;;;10.60;;
56567;SDS011;42456;49.956;20.004;2023-02-15T09:29:10;19.40;;;10.00;;
56567;SDS011;42456;49.956;20.004;2023-02-15T09:31:41;20.80;;;10.60;;
56567;SDS011;42456;49.956;20.004;2023-02-15T09:34:11;21.30;;;10.30;;
56567;SDS011;42456;49.956;20.004;2023-02-15T09:36:40;21.30;;;10.10;;
56567;SDS011;42456;49.956;20.004;2023-02-15T09:39:11;19.80;;;9.90;;
56567;SDS011;42456;49.956;20.004;2023-02-15T09:50:12;22.40;;;11.30;;
56567;SDS011;42456;49.956;20.004;2023-02-15T09:52:46;20.90;;;11.60;;
56567;SDS011;42456;49.956;20.004;2023-02-15T09:55:23;21.90;;;11.30;;
56567;SDS011;42456;49.956;20.004;2023-02-15T10:07:29;24.30;;;11.50;;
56567;SDS011;42456;49.956;20.004;2023-02-15T10:15:09;26.30;;;13.40;;
56567;SDS011;42456;49.956;20.004;2023-02-15T10:18:13;22.10;;;12.30;;
56567;SDS011;42456;49.956;20.004;2023-02-15T10:26:16;26.30;;;13.80;;
56567;SDS011;42456;49.956;20.004;2023-02-15T10:28:45;23.20;;;12.40;;
56567;SDS011;42456;49.956;20.004;2023-02-15T10:31:24;27.50;;;13.50;;
56567;SDS011;42456;49.956;20.004;2023-02-15T10:39:49;21.90;;;11.70;;
56567;SDS011;42456;49.956;20.004;2023-02-15T10:42:41;27.30;;;12.90;;
56567;SDS011;42456;49.956;20.004;2023-02-15T10:47:48;27.90;;;14.20;;
56567;SDS011;42456;49.956;20.004;2023-02-15T10:53:24;26.20;;;12.70;;
56567;SDS011;42456;49.956;20.004;2023-02-15T11:06:59;29.50;;;15.20;;
56567;SDS011;42456;49.956;20.004;2023-02-15T11:09:42;27.70;;;15.40;;
56567;SDS011;42456;49.956;20.004;2023-02-15T11:12:14;26.50;;;14.00;;
56567;SDS011;42456;49.956;20.004;2023-02-15T11:14:53;28.00;;;15.30;;
56567;SDS011;42456;49.956;20.004;2023-02-15T11:20:31;26.40;;;13.20;;
56567;SDS011;42456;49.956;20.004;2023-02-15T11:23:07;27.60;;;13.60;;
56567;SDS011;42456;49.956;20.004;2023-02-15T11:25:46;27.50;;;14.60;;
56567;SDS011;42456;49.956;20.004;2023-02-15T11:28:21;31.00;;;16.80;;
56567;SDS011;42456;49.956;20.004;2023-02-15T11:30:53;28.10;;;15.10;;
56567;SDS011;42456;49.956;20.004;2023-02-15T11:33:34;24.70;;;13.20;;
56567;SDS011;42456;49.956;20.004;2023-02-15T11:36:09;28.10;;;15.30;;
56567;SDS011;42456;49.956;20.004;2023-02-15T11:38:43;25.80;;;13.10;;
56567;SDS011;42456;49.956;20.004;2023-02-15T11:41:17;27.30;;;14.40;;
56567;SDS011;42456;49.956;20.004;2023-02-15T11:43:57;28.50;;;15.70;;
56567;SDS011;42456;49.956;20.004;2023-02-15T11:46:45;24.30;;;13.40;;
56567;SDS011;42456;49.956;20.004;2023-02-15T11:49:21;26.60;;;13.80;;
56567;SDS011;42456;49.956;20.004;2023-02-15T11:51:49;26.40;;;13.10;;
56567;SDS011;42456;49.956;20.004;2023-02-15T11:54:21;25.70;;;13.80;;
56567;SDS011;42456;49.956;20.004;2023-02-15T11:56:55;24.40;;;13.20;;
56567;SDS011;42456;49.956;20.004;2023-02-15T11:59:29;27.70;;;14.30;;
56567;SDS011;42456;49.956;20.004;2023-02-15T12:02:01;25.90;;;14.60;;
56567;SDS011;42456;49.956;20.004;2023-02-15T12:06:57;28.10;;;14.30;;
56567;SDS011;42456;49.956;20.004;2023-02-15T12:09:49;27.30;;;13.90;;
56567;SDS011;42456;49.956;20.004;2023-02-15T12:12:28;22.60;;;12.30;;
56567;SDS011;42456;49.956;20.004;2023-02-15T12:15:01;23.90;;;12.60;;
56567;SDS011;42456;49.956;20.004;2023-02-15T12:17:34;27.60;;;14.10;;
56567;SDS011;42456;49.956;20.004;2023-02-15T12:30:58;29.90;;;15.00;;
56567;SDS011;42456;49.956;20.004;2023-02-15T12:33:34;25.50;;;13.70;;
56567;SDS011;42456;49.956;20.004;2023-02-15T12:36:14;24.00;;;12.70;;
56567;SDS011;42456;49.956;20.004;2023-02-15T12:39:02;23.60;;;12.90;;
56567;SDS011;42456;49.956;20.004;2023-02-15T12:41:31;23.40;;;13.20;;
56567;SDS011;42456;49.956;20.004;2023-02-15T12:49:27;27.70;;;14.80;;
56567;SDS011;42456;49.956;20.004;2023-02-15T12:52:00;29.60;;;15.20;;
56567;SDS011;42456;49.956;20.004;2023-02-15T12:54:30;26.00;;;14.00;;
56567;SDS011;42456;49.956;20.004;2023-02-15T12:57:22;24.00;;;12.60;;
56567;SDS011;42456;49.956;20.004;2023-02-15T12:59:54;25.50;;;14.10;;
56567;SDS011;42456;49.956;20.004;2023-02-15T13:02:28;25.00;;;13.10;;
56567;SDS011;42456;49.956;20.004;2023-02-15T13:08:00;27.20;;;13.50;;
56567;SDS011;42456;49.956;20.004;2023-02-15T13:10:40;25.50;;;13.80;;
56567;SDS011;42456;49.956;20.004;2023-02-15T13:13:11;22.90;;;12.40;;
56567;SDS011;42456;49.956;20.004;2023-02-15T13:15:49;23.40;;;12.70;;
56567;SDS011;42456;49.956;20.004;2023-02-15T13:18:30;25.60;;;14.40;;
56567;SDS011;42456;49.956;20.004;2023-02-15T13:21:04;24.10;;;12.20;;
56567;SDS011;42456;49.956;20.004;2023-02-15T13:23:39;25.10;;;13.10;;
56567;SDS011;42456;49.956;20.004;2023-02-15T13:26:14;24.70;;;13.70;;
56567;SDS011;42456;49.956;20.004;2023-02-15T13:28:46;27.30;;;14.20;;
56567;SDS011;42456;49.956;20.004;2023-02-15T13:31:18;26.90;;;14.30;;
56567;SDS011;42456;49.956;20.004;2023-02-15T13:36:29;27.90;;;15.10;;
56567;SDS011;42456;49.956;20.004;2023-02-15T13:41:58;32.10;;;16.70;;
56567;SDS011;42456;49.956;20.004;2023-02-15T13:50:18;32.10;;;17.40;;
56567;SDS011;42456;49.956;20.004;2023-02-15T14:06:37;27.60;;;14.30;;
56567;SDS011;42456;49.956;20.004;2023-02-15T14:12:02;29.20;;;15.30;;
56567;SDS011;42456;49.956;20.004;2023-02-15T14:23:08;26.30;;;13.60;;
56567;SDS011;42456;49.956;20.004;2023-02-15T14:25:50;28.30;;;14.00;;
56567;SDS011;42456;49.956;20.004;2023-02-15T14:28:39;26.70;;;14.20;;
56567;SDS011;42456;49.956;20.004;2023-02-15T14:31:13;28.50;;;13.90;;
56567;SDS011;42456;49.956;20.004;2023-02-15T14:34:00;26.20;;;14.40;;
56567;SDS011;42456;49.956;20.004;2023-02-15T14:36:27;25.40;;;12.90;;
56567;SDS011;42456;49.956;20.004;2023-02-15T14:39:02;28.30;;;14.20;;
56567;SDS011;42456;49.956;20.004;2023-02-15T14:42:03;21.70;;;11.50;;
56567;SDS011;42456;49.956;20.004;2023-02-15T14:44:38;24.40;;;13.00;;
56567;SDS011;42456;49.956;20.004;2023-02-15T14:49:57;26.80;;;12.70;;
56567;SDS011;42456;49.956;20.004;2023-02-15T14:52:24;24.20;;;13.50;;
56567;SDS011;42456;49.956;20.004;2023-02-15T14:54:54;25.60;;;13.90;;
56567;SDS011;42456;49.956;20.004;2023-02-15T14:57:29;25.40;;;13.50;;
56567;SDS011;42456;49.956;20.004;2023-02-15T15:00:02;23.50;;;12.80;;
56567;SDS011;42456;49.956;20.004;2023-02-15T15:02:49;25.80;;;13.20;;
56567;SDS011;42456;49.956;20.004;2023-02-15T15:07:51;23.80;;;12.00;;
56567;SDS011;42456;49.956;20.004;2023-02-15T15:12:48;24.90;;;12.40;;
56567;SDS011;42456;49.956;20.004;2023-02-15T15:18:03;27.00;;;13.90;;
56567;SDS011;42456;49.956;20.004;2023-02-15T15:25:51;27.40;;;14.60;;
56567;SDS011;42456;49.956;20.004;2023-02-15T15:31:14;31.60;;;15.30;;
56567;SDS011;42456;49.956;20.004;2023-02-15T15:42:29;32.50;;;17.40;;
56567;SDS011;42456;49.956;20.004;2023-02-15T15:50:39;36.20;;;19.60;;
56567;SDS011;42456;49.956;20.004;2023-02-15T15:53:19;35.80;;;18.40;;
56567;SDS011;42456;49.956;20.004;2023-02-15T15:55:49;33.50;;;17.30;;
56567;SDS011;42456;49.956;20.004;2023-02-15T15:58:22;35.00;;;17.20;;
56567;SDS011;42456;49.956;20.004;2023-02-15T16:00:51;36.20;;;18.70;;
56567;SDS011;42456;49.956;20.004;2023-02-15T16:03:26;30.30;;;16.80;;
56567;SDS011;42456;49.956;20.004;2023-02-15T16:05:54;31.10;;;15.70;;
56567;SDS011;42456;49.956;20.004;2023-02-15T16:08:27;26.70;;;15.50;;
56567;SDS011;42456;49.956;20.004;2023-02-15T16:10:58;33.60;;;18.00;;
56567;SDS011;42456;49.956;20.004;2023-02-15T16:13:26;34.50;;;17.80;;
56567;SDS011;42456;49.956;20.004;2023-02-15T16:15:53;35.20;;;18.60;;
56567;SDS011;42456;49.956;20.004;2023-02-15T16:18:23;36.90;;;19.90;;
56567;SDS011;42456;49.956;20.004;2023-02-15T16:23:39;33.50;;;18.60;;
56567;SDS011;42456;49.956;20.004;2023-02-15T16:31:39;39.80;;;20.50;;
56567;SDS011;42456;49.956;20.004;2023-02-15T16:34:09;35.10;;;19.30;;
56567;SDS011;42456;49.956;20.004;2023-02-15T16:36:43;38.80;;;20.30;;
56567;SDS011;42456;49.956;20.004;2023-02-15T16:39:16;34.50;;;18.20;;
56567;SDS011;42456;49.956;20.004;2023-02-15T16:41:44;35.60;;;18.40;;
56567;SDS011;42456;49.956;20.004;2023-02-15T16:44:16;40.10;;;19.30;;
56567;SDS011;42456;49.956;20.004;2023-02-15T16:46:49;36.30;;;18.20;;
56567;SDS011;42456;49.956;20.004;2023-02-15T16:49:23;38.20;;;18.90;;
56567;SDS011;42456;49.956;20.004;2023-02-15T16:51:54;42.40;;;21.80;;
56567;SDS011;42456;49.956;20.004;2023-02-15T16:54:24;40.50;;;20.20;;
56567;SDS011;42456;49.956;20.004;2023-02-15T16:56:52;37.10;;;19.70;;
56567;SDS011;42456;49.956;20.004;2023-02-15T16:59:21;37.60;;;19.10;;
56567;SDS011;42456;49.956;20.004;2023-02-15T17:01:58;37.60;;;20.40;;
56567;SDS011;42456;49.956;20.004;2023-02-15T17:04:29;35.30;;;19.80;;
56567;SDS011;42456;49.956;20.004;2023-02-15T17:06:59;37.40;;;19.10;;
56567;SDS011;42456;49.956;20.004;2023-02-15T17:09:29;36.80;;;20.30;;
56567;SDS011;42456;49.956;20.004;2023-02-15T17:11:56;38.80;;;20.10;;
56567;SDS011;42456;49.956;20.004;2023-02-15T17:14:28;42.00;;;21.20;;
56567;SDS011;42456;49.956;20.004;2023-02-15T17:17:00;40.30;;;21.10;;
56567;SDS011;42456;49.956;20.004;2023-02-15T17:19:40;41.00;;;21.50;;
56567;SDS011;42456;49.956;20.004;2023-02-15T17:22:14;47.80;;;22.30;;
56567;SDS011;42456;49.956;20.004;2023-02-15T17:24:49;41.50;;;20.50;;
56567;SDS011;42456;49.956;20.004;2023-02-15T17:27:25;43.60;;;22.50;;
56567;SDS011;42456;49.956;20.004;2023-02-15T17:30:01;42.60;;;23.10;;
56567;SDS011;42456;49.956;20.004;2023-02-15T17:32:31;45.30;;;22.40;;
56567;SDS011;42456;49.956;20.004;2023-02-15T17:37:50;42.50;;;21.60;;
56567;SDS011;42456;49.956;20.004;2023-02-15T17:40:27;43.60;;;22.40;;
56567;SDS011;42456;49.956;20.004;2023-02-15T17:42:56;44.50;;;22.70;;
56567;SDS011;42456;49.956;20.004;2023-02-15T17:45:25;48.20;;;23.00;;
56567;SDS011;42456;49.956;20.004;2023-02-15T17:47:57;51.60;;;26.60;;
56567;SDS011;42456;49.956;20.004;2023-02-15T17:50:26;45.40;;;23.30;;
56567;SDS011;42456;49.956;20.004;2023-02-15T17:52:54;45.10;;;22.70;;